Fisk, MO (63940)

3:16 AM CST on January 19, 2017 (GMT -0600)
MUP918 | | Change Station

Elev 327 ft 36.77 °N, 90.26 °W | Updated 11 hours ago

Overcast
Overcast
41.0 °F
Feels Like 41.0 °F
N
-
Wind Variable Wind from North

Today
High -- | Low -- °F
--% Chance of Precip.
Yesterday
High -- | Low -- °F
Precip. -- in
Pressure 30.01 in
Visibility 4.0 miles
Clouds Scattered Clouds 300 ft
Overcast 1400 ft
Dew Point Not available.
Humidity Not available.
Rainfall in
Snow Depth Not available.
7:10 AM 5:12 PM
Waning Gibbous, 55% visible
METAR KPOF 190853Z AUTO 04005KT 4SM BR SCT003 OVC014 06/06 A3000 RMK AO2 SLP161 60001 T00610061 56015 TSNO
Pressure 30.01 in
Visibility 4.0 miles
Clouds Scattered Clouds 300 ft
Overcast 1400 ft
Dew Point Not available.
Humidity Not available.
Rainfall in
Snow Depth Not available.
7:10 AM 5:12 PM
Waning Gibbous, 55% visible
METAR KPOF 190853Z AUTO 04005KT 4SM BR SCT003 OVC014 06/06 A3000 RMK AO2 SLP161 60001 T00610061 56015 TSNO

Get Your Daily Forecast Email!

Thanks for signing up!

Be on the lookout for a verification email in your inbox.

You'll start receiving the daily forecast at 8 AM.

×

10-Day Weather Forecast

Almanac

Astronomy

Jan. 19, 2017 Rise Set
Actual Time
Civil Twilight
Nautical Twilight
Astronomical Twilight
Moon
Length of Visible Light
Length of Day
Tomorrow will be .
, % of the Moon is Illuminated

Today's Extremes

State Highs State Lows

Community

WunderPhotos

Upload Photos

1,962,540 photos uploaded!

WunderBlog® & News

Nearby

Air Quality

  Air Quality AQ Index Pollutant
Not available.

Snow Depth

Station Depth Elevation

Earthquake Activity

City Distance Mag. Time & Date
Minimum magnitude displayed is 2.5.

Coastal Water Temperatures

Place Temperature

Stations

Nearby Weather Stations

Station Location Temp. Windchill Dew Point Humidity Wind Precip. Elev Updated Type
                   

Watches & Warnings

There are currently no watches in effect.